sensor_id;sensor_type;location;lat;lon;timestamp;pressure;altitude;pressure_sealevel;temperature;humidity
9740;BME280;4909;42.680;26.324;2024-02-23T00:00:16;98585.75;;;9.96;87.02
9740;BME280;4909;42.680;26.324;2024-02-23T00:02:43;98575.94;;;9.98;86.50
9740;BME280;4909;42.680;26.324;2024-02-23T00:05:10;98589.75;;;10.06;86.29
9740;BME280;4909;42.680;26.324;2024-02-23T00:07:37;98587.88;;;10.08;85.77
9740;BME280;4909;42.680;26.324;2024-02-23T00:10:06;98557.88;;;9.87;86.97
9740;BME280;4909;42.680;26.324;2024-02-23T00:12:34;98587.88;;;10.08;85.87
9740;BME280;4909;42.680;26.324;2024-02-23T00:15:01;98590.81;;;10.02;86.85
9740;BME280;4909;42.680;26.324;2024-02-23T00:17:28;98587.13;;;9.84;88.41
9740;BME280;4909;42.680;26.324;2024-02-23T00:19:55;98582.06;;;10.00;87.50
9740;BME280;4909;42.680;26.324;2024-02-23T00:22:22;98580.59;;;10.13;86.65
9740;BME280;4909;42.680;26.324;2024-02-23T00:24:51;98580.59;;;10.13;86.68
9740;BME280;4909;42.680;26.324;2024-02-23T00:27:18;98575.09;;;10.18;86.82
9740;BME280;4909;42.680;26.324;2024-02-23T00:29:46;98574.69;;;10.27;86.24
9740;BME280;4909;42.680;26.324;2024-02-23T00:32:13;98554.41;;;10.06;86.38
9740;BME280;4909;42.680;26.324;2024-02-23T00:34:40;98579.44;;;10.20;86.27
9740;BME280;4909;42.680;26.324;2024-02-23T00:37:07;98577.81;;;10.36;84.54
9740;BME280;4909;42.680;26.324;2024-02-23T00:39:34;98568.06;;;10.17;85.45
9740;BME280;4909;42.680;26.324;2024-02-23T00:42:02;98556.19;;;10.05;86.55
9740;BME280;4909;42.680;26.324;2024-02-23T00:44:29;98569.91;;;10.15;87.50
9740;BME280;4909;42.680;26.324;2024-02-23T00:46:57;98558.94;;;10.24;86.52
9740;BME280;4909;42.680;26.324;2024-02-23T00:49:28;98557.19;;;10.23;86.89
9740;BME280;4909;42.680;26.324;2024-02-23T00:51:55;98559.75;;;10.26;86.41
9740;BME280;4909;42.680;26.324;2024-02-23T00:54:22;98554.69;;;10.20;87.25
9740;BME280;4909;42.680;26.324;2024-02-23T00:56:49;98543.09;;;10.02;88.08
9740;BME280;4909;42.680;26.324;2024-02-23T00:59:16;98556.53;;;10.38;86.82
9740;BME280;4909;42.680;26.324;2024-02-23T01:01:43;98548.91;;;10.30;86.60
9740;BME280;4909;42.680;26.324;2024-02-23T01:04:11;98541.72;;;10.12;87.78
9740;BME280;4909;42.680;26.324;2024-02-23T01:06:38;98536.38;;;9.93;90.09
9740;BME280;4909;42.680;26.324;2024-02-23T01:09:05;98503.84;;;9.90;89.65
9740;BME280;4909;42.680;26.324;2024-02-23T01:11:32;98508.28;;;10.30;88.52
9740;BME280;4909;42.680;26.324;2024-02-23T01:13:59;98528.34;;;10.35;89.08
9740;BME280;4909;42.680;26.324;2024-02-23T01:16:26;98510.47;;;10.20;89.92
9740;BME280;4909;42.680;26.324;2024-02-23T01:18:53;98534.22;;;10.42;90.04
9740;BME280;4909;42.680;26.324;2024-02-23T01:21:22;98523.50;;;10.45;89.55
9740;BME280;4909;42.680;26.324;2024-02-23T01:23:48;98514.88;;;10.40;90.14
9740;BME280;4909;42.680;26.324;2024-02-23T01:26:15;98514.84;;;10.21;90.32
9740;BME280;4909;42.680;26.324;2024-02-23T01:28:42;98478.16;;;10.11;87.86
9740;BME280;4909;42.680;26.324;2024-02-23T01:31:10;98484.81;;;10.00;88.48
9740;BME280;4909;42.680;26.324;2024-02-23T01:33:37;98506.88;;;10.01;88.82
9740;BME280;4909;42.680;26.324;2024-02-23T01:36:05;98486.75;;;9.97;89.02
9740;BME280;4909;42.680;26.324;2024-02-23T01:38:33;98497.06;;;10.03;89.81
9740;BME280;4909;42.680;26.324;2024-02-23T01:41:00;98490.97;;;10.01;89.52
9740;BME280;4909;42.680;26.324;2024-02-23T01:43:28;98495.81;;;10.12;89.11
9740;BME280;4909;42.680;26.324;2024-02-23T01:45:55;98479.44;;;10.02;88.78
9740;BME280;4909;42.680;26.324;2024-02-23T01:48:22;98495.72;;;10.33;87.77
9740;BME280;4909;42.680;26.324;2024-02-23T01:50:49;98499.50;;;10.28;87.67
9740;BME280;4909;42.680;26.324;2024-02-23T01:53:16;98497.00;;;10.25;87.95
9740;BME280;4909;42.680;26.324;2024-02-23T01:55:47;98494.09;;;10.31;87.07
9740;BME280;4909;42.680;26.324;2024-02-23T01:58:15;98495.00;;;10.30;87.10
9740;BME280;4909;42.680;26.324;2024-02-23T02:00:42;98498.06;;;10.21;88.11
9740;BME280;4909;42.680;26.324;2024-02-23T02:03:09;98499.44;;;10.29;88.18
9740;BME280;4909;42.680;26.324;2024-02-23T02:05:36;98495.66;;;10.35;87.47
9740;BME280;4909;42.680;26.324;2024-02-23T02:08:04;98423.94;;;9.97;86.93
9740;BME280;4909;42.680;26.324;2024-02-23T02:10:31;98484.25;;;10.33;87.50
9740;BME280;4909;42.680;26.324;2024-02-23T02:13:03;98496.00;;;10.27;87.83
9740;BME280;4909;42.680;26.324;2024-02-23T02:15:31;98491.94;;;10.39;87.32
9740;BME280;4909;42.680;26.324;2024-02-23T02:17:58;98480.38;;;10.40;86.29
9740;BME280;4909;42.680;26.324;2024-02-23T02:20:25;98491.06;;;10.38;86.85
9740;BME280;4909;42.680;26.324;2024-02-23T02:22:52;98480.44;;;10.20;87.41
9740;BME280;4909;42.680;26.324;2024-02-23T02:25:19;98491.66;;;10.45;86.05
9740;BME280;4909;42.680;26.324;2024-02-23T02:27:46;98478.38;;;10.45;86.02
9740;BME280;4909;42.680;26.324;2024-02-23T02:30:15;98480.44;;;10.38;85.94
9740;BME280;4909;42.680;26.324;2024-02-23T02:32:42;98483.16;;;10.37;86.13
9740;BME280;4909;42.680;26.324;2024-02-23T02:35:10;98495.34;;;10.41;86.40
9740;BME280;4909;42.680;26.324;2024-02-23T02:37:37;98494.16;;;10.48;85.73
9740;BME280;4909;42.680;26.324;2024-02-23T02:40:06;98492.91;;;10.36;86.28
9740;BME280;4909;42.680;26.324;2024-02-23T02:42:33;98487.75;;;10.33;86.73
9740;BME280;4909;42.680;26.324;2024-02-23T02:45:00;98465.88;;;10.28;86.10
9740;BME280;4909;42.680;26.324;2024-02-23T02:47:29;98491.81;;;10.22;87.51
9740;BME280;4909;42.680;26.324;2024-02-23T02:49:57;98497.66;;;10.49;85.99
9740;BME280;4909;42.680;26.324;2024-02-23T02:52:24;98494.78;;;10.34;86.85
9740;BME280;4909;42.680;26.324;2024-02-23T02:54:51;98492.19;;;10.33;87.26
9740;BME280;4909;42.680;26.324;2024-02-23T02:57:35;98492.44;;;10.47;86.85
9740;BME280;4909;42.680;26.324;2024-02-23T03:00:02;98460.00;;;10.22;87.28
9740;BME280;4909;42.680;26.324;2024-02-23T03:02:32;98463.72;;;10.18;88.07
9740;BME280;4909;42.680;26.324;2024-02-23T03:04:59;98491.28;;;10.34;87.57
9740;BME280;4909;42.680;26.324;2024-02-23T03:07:26;98490.84;;;10.43;86.40
9740;BME280;4909;42.680;26.324;2024-02-23T03:09:53;98472.84;;;10.31;87.11
9740;BME280;4909;42.680;26.324;2024-02-23T03:12:20;98489.91;;;10.25;87.07
9740;BME280;4909;42.680;26.324;2024-02-23T03:14:47;98486.84;;;10.34;87.55
9740;BME280;4909;42.680;26.324;2024-02-23T03:17:15;98474.84;;;10.26;87.71
9740;BME280;4909;42.680;26.324;2024-02-23T03:19:43;98472.72;;;10.34;87.12
9740;BME280;4909;42.680;26.324;2024-02-23T03:22:10;98479.00;;;10.31;87.45
9740;BME280;4909;42.680;26.324;2024-02-23T03:24:37;98477.44;;;10.46;86.93
9740;BME280;4909;42.680;26.324;2024-02-23T03:27:04;98489.28;;;10.58;85.85
9740;BME280;4909;42.680;26.324;2024-02-23T03:29:31;98483.81;;;10.42;86.49
9740;BME280;4909;42.680;26.324;2024-02-23T03:31:58;98474.44;;;10.35;86.87
9740;BME280;4909;42.680;26.324;2024-02-23T03:34:26;98486.81;;;10.16;87.98
9740;BME280;4909;42.680;26.324;2024-02-23T03:36:55;98488.63;;;10.14;87.90
9740;BME280;4909;42.680;26.324;2024-02-23T03:39:23;98457.44;;;10.00;88.41
9740;BME280;4909;42.680;26.324;2024-02-23T03:41:50;98477.25;;;10.12;88.93
9740;BME280;4909;42.680;26.324;2024-02-23T03:44:17;98478.09;;;10.12;89.21
9740;BME280;4909;42.680;26.324;2024-02-23T03:46:44;98456.22;;;10.07;88.80
9740;BME280;4909;42.680;26.324;2024-02-23T03:49:12;98478.72;;;10.19;89.55
9740;BME280;4909;42.680;26.324;2024-02-23T03:51:38;98474.13;;;10.22;89.97
9740;BME280;4909;42.680;26.324;2024-02-23T03:54:07;98471.84;;;10.13;90.83
9740;BME280;4909;42.680;26.324;2024-02-23T03:56:38;98467.25;;;9.98;93.66
9740;BME280;4909;42.680;26.324;2024-02-23T03:59:06;98470.75;;;9.98;94.28
9740;BME280;4909;42.680;26.324;2024-02-23T04:01:35;98467.38;;;9.95;95.10
9740;BME280;4909;42.680;26.324;2024-02-23T04:04:03;98472.63;;;9.96;96.13
9740;BME280;4909;42.680;26.324;2024-02-23T04:06:31;98464.03;;;10.10;95.52
9740;BME280;4909;42.680;26.324;2024-02-23T04:08:58;98454.63;;;10.03;95.90
9740;BME280;4909;42.680;26.324;2024-02-23T04:11:26;98461.38;;;9.91;97.40
9740;BME280;4909;42.680;26.324;2024-02-23T04:13:53;98459.59;;;9.92;97.16
9740;BME280;4909;42.680;26.324;2024-02-23T04:16:22;98458.28;;;9.62;99.15
9740;BME280;4909;42.680;26.324;2024-02-23T04:18:50;98453.09;;;9.58;100.00
9740;BME280;4909;42.680;26.324;2024-02-23T04:21:17;98450.63;;;9.74;100.00
9740;BME280;4909;42.680;26.324;2024-02-23T04:23:44;98452.81;;;9.85;100.00
9740;BME280;4909;42.680;26.324;2024-02-23T04:26:11;98407.56;;;9.69;98.72
9740;BME280;4909;42.680;26.324;2024-02-23T04:28:40;98457.00;;;10.09;97.08
9740;BME280;4909;42.680;26.324;2024-02-23T04:31:08;98465.31;;;10.01;95.34
9740;BME280;4909;42.680;26.324;2024-02-23T04:33:35;98464.91;;;10.11;93.76
9740;BME280;4909;42.680;26.324;2024-02-23T04:36:02;98462.78;;;10.19;93.12
9740;BME280;4909;42.680;26.324;2024-02-23T04:38:29;98449.69;;;9.95;92.22
9740;BME280;4909;42.680;26.324;2024-02-23T04:40:57;98465.19;;;10.04;91.94
9740;BME280;4909;42.680;26.324;2024-02-23T04:43:24;98466.91;;;10.06;91.69
9740;BME280;4909;42.680;26.324;2024-02-23T04:45:53;98475.94;;;9.81;91.91
9740;BME280;4909;42.680;26.324;2024-02-23T04:48:20;98479.94;;;9.91;91.83
9740;BME280;4909;42.680;26.324;2024-02-23T04:50:47;98474.06;;;9.83;92.96
9740;BME280;4909;42.680;26.324;2024-02-23T04:53:14;98480.13;;;9.87;93.57
9740;BME280;4909;42.680;26.324;2024-02-23T04:55:41;98469.44;;;9.88;93.63
9740;BME280;4909;42.680;26.324;2024-02-23T04:58:08;98463.97;;;9.73;94.81
9740;BME280;4909;42.680;26.324;2024-02-23T05:00:35;98455.75;;;9.97;93.56
9740;BME280;4909;42.680;26.324;2024-02-23T05:03:04;98469.31;;;9.91;93.93
9740;BME280;4909;42.680;26.324;2024-02-23T05:05:32;98452.56;;;9.91;93.79
9740;BME280;4909;42.680;26.324;2024-02-23T05:07:59;98443.03;;;9.87;94.76
9740;BME280;4909;42.680;26.324;2024-02-23T05:10:26;98460.34;;;9.94;95.29
9740;BME280;4909;42.680;26.324;2024-02-23T05:12:53;98455.66;;;9.80;96.12
9740;BME280;4909;42.680;26.324;2024-02-23T05:15:20;98434.94;;;9.70;96.36
9740;BME280;4909;42.680;26.324;2024-02-23T05:17:47;98450.78;;;9.71;96.45
9740;BME280;4909;42.680;26.324;2024-02-23T05:20:16;98458.53;;;9.76;96.65
9740;BME280;4909;42.680;26.324;2024-02-23T05:22:43;98468.63;;;9.68;95.26
9740;BME280;4909;42.680;26.324;2024-02-23T05:25:10;98469.53;;;9.87;94.23
9740;BME280;4909;42.680;26.324;2024-02-23T05:27:37;98474.81;;;9.87;93.44
9740;BME280;4909;42.680;26.324;2024-02-23T05:30:05;98467.31;;;9.96;93.33
9740;BME280;4909;42.680;26.324;2024-02-23T05:32:33;98474.06;;;10.03;92.32
9740;BME280;4909;42.680;26.324;2024-02-23T05:35:00;98484.41;;;10.10;92.05
9740;BME280;4909;42.680;26.324;2024-02-23T05:37:28;98473.94;;;10.07;91.73
9740;BME280;4909;42.680;26.324;2024-02-23T05:39:55;98489.50;;;10.14;91.35
9740;BME280;4909;42.680;26.324;2024-02-23T05:42:25;98498.22;;;10.36;89.62
9740;BME280;4909;42.680;26.324;2024-02-23T05:44:52;98490.13;;;10.21;90.14
9740;BME280;4909;42.680;26.324;2024-02-23T05:47:19;98495.94;;;10.29;90.07
9740;BME280;4909;42.680;26.324;2024-02-23T05:49:46;98485.13;;;10.13;90.33
9740;BME280;4909;42.680;26.324;2024-02-23T05:52:13;98486.66;;;10.19;89.69
9740;BME280;4909;42.680;26.324;2024-02-23T05:54:42;98488.13;;;10.26;89.93
9740;BME280;4909;42.680;26.324;2024-02-23T05:57:09;98491.94;;;10.39;89.30
9740;BME280;4909;42.680;26.324;2024-02-23T05:59:36;98494.59;;;10.58;88.38
9740;BME280;4909;42.680;26.324;2024-02-23T06:02:03;98503.47;;;10.75;87.53
9740;BME280;4909;42.680;26.324;2024-02-23T06:04:30;98480.28;;;10.98;86.48
9740;BME280;4909;42.680;26.324;2024-02-23T06:06:57;98504.91;;;11.54;84.52
9740;BME280;4909;42.680;26.324;2024-02-23T06:09:24;98513.72;;;12.88;79.07
9740;BME280;4909;42.680;26.324;2024-02-23T06:11:52;98514.28;;;13.71;73.96
9740;BME280;4909;42.680;26.324;2024-02-23T06:14:19;98532.31;;;14.97;67.62
9740;BME280;4909;42.680;26.324;2024-02-23T06:16:46;98527.44;;;16.23;62.14
9740;BME280;4909;42.680;26.324;2024-02-23T06:19:14;98527.34;;;16.88;60.66
9740;BME280;4909;42.680;26.324;2024-02-23T06:21:41;98521.53;;;18.02;55.25
9740;BME280;4909;42.680;26.324;2024-02-23T06:24:08;98512.41;;;19.06;51.85
9740;BME280;4909;42.680;26.324;2024-02-23T06:26:35;98488.63;;;19.76;48.18
9740;BME280;4909;42.680;26.324;2024-02-23T06:29:03;98500.81;;;20.54;45.41
9740;BME280;4909;42.680;26.324;2024-02-23T06:31:31;98503.72;;;20.62;45.54
9740;BME280;4909;42.680;26.324;2024-02-23T06:34:00;98470.66;;;19.66;45.97
9740;BME280;4909;42.680;26.324;2024-02-23T06:36:27;98507.50;;;19.00;48.83
9740;BME280;4909;42.680;26.324;2024-02-23T06:38:54;98497.94;;;18.40;51.92
9740;BME280;4909;42.680;26.324;2024-02-23T06:41:21;98507.53;;;17.74;55.23
9740;BME280;4909;42.680;26.324;2024-02-23T06:43:47;98493.31;;;17.61;57.06
9740;BME280;4909;42.680;26.324;2024-02-23T06:46:15;98504.34;;;18.15;56.00
9740;BME280;4909;42.680;26.324;2024-02-23T06:48:45;98511.03;;;17.27;59.09
9740;BME280;4909;42.680;26.324;2024-02-23T06:51:12;98500.53;;;16.75;60.85
9740;BME280;4909;42.680;26.324;2024-02-23T06:53:41;98503.66;;;16.19;63.75
9740;BME280;4909;42.680;26.324;2024-02-23T06:56:08;98505.47;;;16.81;61.99
9740;BME280;4909;42.680;26.324;2024-02-23T06:58:35;98496.44;;;16.95;61.50
9740;BME280;4909;42.680;26.324;2024-02-23T07:01:02;98505.56;;;17.53;59.51
9740;BME280;4909;42.680;26.324;2024-02-23T07:03:32;98480.19;;;17.69;58.62
9740;BME280;4909;42.680;26.324;2024-02-23T07:06:00;98503.66;;;18.24;57.39
9740;BME280;4909;42.680;26.324;2024-02-23T07:08:28;98502.16;;;18.78;55.43
9740;BME280;4909;42.680;26.324;2024-02-23T07:10:55;98503.34;;;18.74;54.00
9740;BME280;4909;42.680;26.324;2024-02-23T07:13:22;98493.19;;;19.22;53.26
9740;BME280;4909;42.680;26.324;2024-02-23T07:15:49;98493.81;;;19.57;51.37
9740;BME280;4909;42.680;26.324;2024-02-23T07:18:17;98499.53;;;19.09;51.58
9740;BME280;4909;42.680;26.324;2024-02-23T07:20:45;98503.47;;;19.17;51.91
9740;BME280;4909;42.680;26.324;2024-02-23T07:23:12;98498.22;;;18.71;53.36
9740;BME280;4909;42.680;26.324;2024-02-23T07:25:41;98507.59;;;18.43;55.01
9740;BME280;4909;42.680;26.324;2024-02-23T07:28:08;98499.19;;;17.90;57.03
9740;BME280;4909;42.680;26.324;2024-02-23T07:30:35;98506.56;;;17.75;59.25
9740;BME280;4909;42.680;26.324;2024-02-23T07:33:03;98504.28;;;18.28;56.83
9740;BME280;4909;42.680;26.324;2024-02-23T07:35:30;98508.78;;;19.39;53.58
9740;BME280;4909;42.680;26.324;2024-02-23T07:37:58;98489.78;;;21.27;47.50
9740;BME280;4909;42.680;26.324;2024-02-23T07:40:25;98497.97;;;22.04;45.61
9740;BME280;4909;42.680;26.324;2024-02-23T07:42:52;98497.75;;;22.53;43.50
9740;BME280;4909;42.680;26.324;2024-02-23T07:45:19;98494.69;;;23.85;40.11
9740;BME280;4909;42.680;26.324;2024-02-23T07:47:46;98501.44;;;23.81;39.71
9740;BME280;4909;42.680;26.324;2024-02-23T07:50:13;98503.50;;;23.87;39.97
9740;BME280;4909;42.680;26.324;2024-02-23T07:52:41;98508.06;;;24.22;39.34
9740;BME280;4909;42.680;26.324;2024-02-23T07:55:10;98507.31;;;23.76;39.06
9740;BME280;4909;42.680;26.324;2024-02-23T07:57:37;98509.50;;;24.52;37.55
9740;BME280;4909;42.680;26.324;2024-02-23T08:00:06;98512.84;;;24.72;37.50
9740;BME280;4909;42.680;26.324;2024-02-23T08:02:35;98501.41;;;24.34;37.59
9740;BME280;4909;42.680;26.324;2024-02-23T08:05:02;98488.13;;;25.08;36.72
9740;BME280;4909;42.680;26.324;2024-02-23T08:07:29;98496.38;;;25.75;35.14
9740;BME280;4909;42.680;26.324;2024-02-23T08:09:57;98503.19;;;24.95;36.16
9740;BME280;4909;42.680;26.324;2024-02-23T08:12:26;98506.41;;;24.11;38.54
9740;BME280;4909;42.680;26.324;2024-02-23T08:14:53;98515.03;;;24.42;37.87
9740;BME280;4909;42.680;26.324;2024-02-23T08:17:20;98511.47;;;24.93;36.83
9740;BME280;4909;42.680;26.324;2024-02-23T08:19:47;98517.66;;;25.45;35.21
9740;BME280;4909;42.680;26.324;2024-02-23T08:22:14;98515.06;;;24.50;37.40
9740;BME280;4909;42.680;26.324;2024-02-23T08:24:41;98519.53;;;24.59;37.07
9740;BME280;4909;42.680;26.324;2024-02-23T08:27:08;98510.19;;;25.05;37.01
9740;BME280;4909;42.680;26.324;2024-02-23T08:29:39;98514.59;;;25.40;36.22
9740;BME280;4909;42.680;26.324;2024-02-23T08:32:07;98523.97;;;25.46;35.26
9740;BME280;4909;42.680;26.324;2024-02-23T08:34:34;98514.72;;;25.73;35.70
9740;BME280;4909;42.680;26.324;2024-02-23T08:37:01;98491.34;;;25.04;35.59
9740;BME280;4909;42.680;26.324;2024-02-23T08:39:28;98502.16;;;25.80;34.77
9740;BME280;4909;42.680;26.324;2024-02-23T08:41:55;98526.53;;;26.62;33.07
9740;BME280;4909;42.680;26.324;2024-02-23T08:44:22;98520.75;;;26.25;33.06
9740;BME280;4909;42.680;26.324;2024-02-23T08:46:50;98514.97;;;24.86;35.85
9740;BME280;4909;42.680;26.324;2024-02-23T08:49:17;98522.47;;;24.66;36.73
9740;BME280;4909;42.680;26.324;2024-02-23T08:51:44;98529.16;;;25.81;33.87
9740;BME280;4909;42.680;26.324;2024-02-23T08:54:11;98525.22;;;25.26;33.91
9740;BME280;4909;42.680;26.324;2024-02-23T08:56:38;98529.19;;;25.39;33.57
9740;BME280;4909;42.680;26.324;2024-02-23T08:59:07;98529.34;;;25.88;32.79
9740;BME280;4909;42.680;26.324;2024-02-23T09:01:40;98531.25;;;26.12;32.10
9740;BME280;4909;42.680;26.324;2024-02-23T09:04:11;98518.63;;;25.70;31.95
9740;BME280;4909;42.680;26.324;2024-02-23T09:06:38;98524.53;;;25.24;33.13
9740;BME280;4909;42.680;26.324;2024-02-23T09:09:05;98519.44;;;25.55;32.60
9740;BME280;4909;42.680;26.324;2024-02-23T09:11:32;98512.13;;;25.63;32.91
9740;BME280;4909;42.680;26.324;2024-02-23T09:13:59;98515.75;;;25.80;31.51
9740;BME280;4909;42.680;26.324;2024-02-23T09:19:49;98500.81;;;25.84;32.00
9740;BME280;4909;42.680;26.324;2024-02-23T09:22:16;98499.81;;;25.01;33.01
9740;BME280;4909;42.680;26.324;2024-02-23T09:24:43;98512.00;;;24.71;34.11
9740;BME280;4909;42.680;26.324;2024-02-23T09:27:10;98493.03;;;24.79;33.64
9740;BME280;4909;42.680;26.324;2024-02-23T09:29:37;98494.53;;;23.87;34.04
9740;BME280;4909;42.680;26.324;2024-02-23T09:32:04;98484.63;;;23.95;33.98
9740;BME280;4909;42.680;26.324;2024-02-23T09:34:31;98493.13;;;23.65;35.21
9740;BME280;4909;42.680;26.324;2024-02-23T09:37:00;98484.91;;;23.74;34.86
9740;BME280;4909;42.680;26.324;2024-02-23T09:39:27;98483.75;;;22.77;37.13
9740;BME280;4909;42.680;26.324;2024-02-23T09:41:55;98487.53;;;22.28;36.94
9740;BME280;4909;42.680;26.324;2024-02-23T09:44:23;98469.66;;;21.98;38.01
9740;BME280;4909;42.680;26.324;2024-02-23T09:46:50;98476.44;;;21.45;38.22
9740;BME280;4909;42.680;26.324;2024-02-23T09:49:17;98480.16;;;21.44;39.09
9740;BME280;4909;42.680;26.324;2024-02-23T09:51:44;98470.59;;;20.90;40.29
9740;BME280;4909;42.680;26.324;2024-02-23T09:54:13;98480.25;;;20.93;40.51
9740;BME280;4909;42.680;26.324;2024-02-23T09:56:40;98477.25;;;20.14;41.39
9740;BME280;4909;42.680;26.324;2024-02-23T09:59:07;98452.34;;;19.80;43.16
9740;BME280;4909;42.680;26.324;2024-02-23T10:01:34;98489.09;;;19.49;44.68
9740;BME280;4909;42.680;26.324;2024-02-23T10:04:02;98478.78;;;19.00;46.56
9740;BME280;4909;42.680;26.324;2024-02-23T10:06:30;98477.69;;;18.81;48.22
9740;BME280;4909;42.680;26.324;2024-02-23T10:08:57;98473.31;;;18.69;48.79
9740;BME280;4909;42.680;26.324;2024-02-23T10:11:25;98464.63;;;18.65;49.67
9740;BME280;4909;42.680;26.324;2024-02-23T10:13:52;98474.41;;;18.55;50.08
9740;BME280;4909;42.680;26.324;2024-02-23T10:16:19;98472.41;;;18.46;50.50
9740;BME280;4909;42.680;26.324;2024-02-23T10:18:47;98475.31;;;18.32;50.65
9740;BME280;4909;42.680;26.324;2024-02-23T10:21:14;98465.56;;;18.19;51.57
9740;BME280;4909;42.680;26.324;2024-02-23T10:23:42;98471.34;;;18.02;53.60
9740;BME280;4909;42.680;26.324;2024-02-23T10:26:09;98466.50;;;18.07;52.46
9740;BME280;4909;42.680;26.324;2024-02-23T10:28:37;98464.03;;;17.93;52.56
9740;BME280;4909;42.680;26.324;2024-02-23T10:31:05;98440.25;;;17.41;54.55
9740;BME280;4909;42.680;26.324;2024-02-23T10:33:32;98455.72;;;17.14;55.25
9740;BME280;4909;42.680;26.324;2024-02-23T10:36:00;98442.78;;;17.08;56.29
9740;BME280;4909;42.680;26.324;2024-02-23T10:38:29;98449.69;;;17.47;55.36
9740;BME280;4909;42.680;26.324;2024-02-23T10:40:59;98433.44;;;17.61;54.16
9740;BME280;4909;42.680;26.324;2024-02-23T10:43:32;98450.09;;;17.88;53.97
9740;BME280;4909;42.680;26.324;2024-02-23T10:46:02;98452.81;;;17.99;52.87
9740;BME280;4909;42.680;26.324;2024-02-23T10:48:33;98443.00;;;17.87;54.12
9740;BME280;4909;42.680;26.324;2024-02-23T10:51:03;98437.78;;;17.97;53.33
9740;BME280;4909;42.680;26.324;2024-02-23T10:53:31;98426.38;;;17.71;53.48
9740;BME280;4909;42.680;26.324;2024-02-23T10:56:00;98433.44;;;17.13;54.49
9740;BME280;4909;42.680;26.324;2024-02-23T10:58:27;98432.91;;;17.08;55.34
9740;BME280;4909;42.680;26.324;2024-02-23T11:00:59;98420.88;;;17.49;55.64
9740;BME280;4909;42.680;26.324;2024-02-23T11:03:30;98423.31;;;17.64;54.13
9740;BME280;4909;42.680;26.324;2024-02-23T11:05:59;98414.06;;;17.45;55.84
9740;BME280;4909;42.680;26.324;2024-02-23T11:08:28;98416.00;;;17.43;54.89
9740;BME280;4909;42.680;26.324;2024-02-23T11:10:55;98408.66;;;17.68;54.88
9740;BME280;4909;42.680;26.324;2024-02-23T11:13:30;98412.88;;;18.06;51.84
9740;BME280;4909;42.680;26.324;2024-02-23T11:16:01;98410.94;;;18.08;51.23
9740;BME280;4909;42.680;26.324;2024-02-23T11:18:30;98406.31;;;18.21;49.52
9740;BME280;4909;42.680;26.324;2024-02-23T11:20:59;98406.69;;;18.39;50.72
9740;BME280;4909;42.680;26.324;2024-02-23T11:23:27;98397.75;;;18.49;49.56
9740;BME280;4909;42.680;26.324;2024-02-23T11:26:04;98379.34;;;18.22;48.62
9740;BME280;4909;42.680;26.324;2024-02-23T11:28:41;98384.84;;;18.43;48.12
9740;BME280;4909;42.680;26.324;2024-02-23T11:31:14;98399.34;;;18.41;48.48
9740;BME280;4909;42.680;26.324;2024-02-23T11:33:49;98371.91;;;18.15;47.17
9740;BME280;4909;42.680;26.324;2024-02-23T11:36:22;98371.16;;;18.24;46.60
9740;BME280;4909;42.680;26.324;2024-02-23T11:38:52;98390.19;;;18.21;47.01
9740;BME280;4909;42.680;26.324;2024-02-23T11:41:21;98393.38;;;18.04;46.85
9740;BME280;4909;42.680;26.324;2024-02-23T11:43:49;98394.84;;;18.30;46.21
9740;BME280;4909;42.680;26.324;2024-02-23T11:46:17;98394.13;;;18.28;44.69
9740;BME280;4909;42.680;26.324;2024-02-23T11:48:44;98385.56;;;18.34;44.59
9740;BME280;4909;42.680;26.324;2024-02-23T11:51:15;98385.44;;;18.36;44.76
9740;BME280;4909;42.680;26.324;2024-02-23T11:53:42;98368.09;;;18.51;44.37
9740;BME280;4909;42.680;26.324;2024-02-23T11:56:11;98384.94;;;18.42;45.70
9740;BME280;4909;42.680;26.324;2024-02-23T11:58:39;98345.53;;;18.09;45.48
9740;BME280;4909;42.680;26.324;2024-02-23T12:01:06;98380.66;;;18.50;46.19
9740;BME280;4909;42.680;26.324;2024-02-23T12:03:33;98353.81;;;18.28;45.45
9740;BME280;4909;42.680;26.324;2024-02-23T12:06:01;98377.00;;;18.40;45.65
9740;BME280;4909;42.680;26.324;2024-02-23T12:08:31;98369.44;;;18.12;46.18
9740;BME280;4909;42.680;26.324;2024-02-23T12:11:03;98370.28;;;17.90;46.94
9740;BME280;4909;42.680;26.324;2024-02-23T12:13:31;98350.38;;;17.70;46.67
9740;BME280;4909;42.680;26.324;2024-02-23T12:15:58;98376.50;;;18.02;46.46
9740;BME280;4909;42.680;26.324;2024-02-23T12:18:25;98366.50;;;17.93;46.67
9740;BME280;4909;42.680;26.324;2024-02-23T12:20:59;98358.72;;;18.34;46.67
9740;BME280;4909;42.680;26.324;2024-02-23T12:23:26;98361.03;;;18.39;46.02
9740;BME280;4909;42.680;26.324;2024-02-23T12:25:56;98370.56;;;18.54;45.18
9740;BME280;4909;42.680;26.324;2024-02-23T12:28:24;98367.75;;;18.44;43.32
9740;BME280;4909;42.680;26.324;2024-02-23T12:30:59;98363.69;;;18.50;44.26
9740;BME280;4909;42.680;26.324;2024-02-23T12:33:28;98357.13;;;18.54;40.98
9740;BME280;4909;42.680;26.324;2024-02-23T12:35:56;98336.22;;;18.57;40.22
9740;BME280;4909;42.680;26.324;2024-02-23T12:38:23;98340.50;;;18.49;40.12
9740;BME280;4909;42.680;26.324;2024-02-23T12:40:50;98354.28;;;18.66;40.00
9740;BME280;4909;42.680;26.324;2024-02-23T12:43:19;98337.41;;;18.64;40.09
9740;BME280;4909;42.680;26.324;2024-02-23T12:45:47;98347.31;;;18.53;38.87
9740;BME280;4909;42.680;26.324;2024-02-23T12:48:15;98318.63;;;18.31;39.27
9740;BME280;4909;42.680;26.324;2024-02-23T12:50:43;98327.44;;;18.44;37.84
9740;BME280;4909;42.680;26.324;2024-02-23T12:53:11;98338.06;;;18.35;38.85
9740;BME280;4909;42.680;26.324;2024-02-23T12:55:56;98299.88;;;18.20;38.91
9740;BME280;4909;42.680;26.324;2024-02-23T12:58:24;98328.66;;;18.18;38.97
9740;BME280;4909;42.680;26.324;2024-02-23T13:00:51;98326.56;;;18.44;38.30
9740;BME280;4909;42.680;26.324;2024-02-23T13:03:19;98321.56;;;18.61;38.14
9740;BME280;4909;42.680;26.324;2024-02-23T13:05:46;98326.44;;;18.67;37.53
9740;BME280;4909;42.680;26.324;2024-02-23T13:08:13;98308.13;;;18.39;37.53
9740;BME280;4909;42.680;26.324;2024-02-23T13:10:40;98310.19;;;18.36;37.87
9740;BME280;4909;42.680;26.324;2024-02-23T13:13:07;98313.00;;;18.45;38.03
9740;BME280;4909;42.680;26.324;2024-02-23T13:15:35;98321.53;;;18.50;37.53
9740;BME280;4909;42.680;26.324;2024-02-23T13:18:03;98320.44;;;18.53;39.01